Time,TemperatureF,DewpointF,PressureIn,WindDirection,WindDirectionDegrees,WindSpeedMPH,WindSpeedGustMPH,Humidity,HourlyPrecipIn,Conditions,Clouds,dailyrainin,SoftwareType,DateUTC
2013-03-28 00:09:00,37.5,36.0,30.00,West,273,0.0,-999.0,94,-99.99,,,0.00,weatherlink.com 1.10,2013-03-28 07:09:00,
2013-03-28 00:24:00,37.1,35.0,29.99,SE,128,2.0,-999.0,93,-99.99,,,0.00,weatherlink.com 1.10,2013-03-28 07:24:00,
2013-03-28 00:39:00,37.1,36.0,30.00,SE,146,0.0,-999.0,94,-99.99,,,0.00,weatherlink.com 1.10,2013-03-28 07:39:00,
2013-03-28 00:54:00,37.3,36.0,30.00,SE,139,1.0,-999.0,95,-99.99,,,0.00,weatherlink.com 1.10,2013-03-28 07:54:00,
2013-03-28 01:09:00,38.2,37.0,30.00,SSE,148,2.0,-999.0,95,-99.99,,,0.00,weatherlink.com 1.10,2013-03-28 08:09:00,
2013-03-28 01:24:00,38.9,38.0,30.00,ESE,122,0.0,-999.0,95,-99.99,,,0.00,weatherlink.com 1.10,2013-03-28 08:24:00,
2013-03-28 01:39:00,39.3,38.0,30.00,ESE,121,0.0,-999.0,95,-99.99,,,0.00,weatherlink.com 1.10,2013-03-28 08:39:00,
2013-03-28 01:54:00,39.4,38.0,30.00,East,101,0.0,-999.0,95,-99.99,,,0.00,weatherlink.com 1.10,2013-03-28 08:54:00,
2013-03-28 02:09:00,39.7,38.0,30.01,SW,215,0.0,-999.0,95,-99.99,,,0.00,weatherlink.com 1.10,2013-03-28 09:09:00,
2013-03-28 02:24:00,39.7,38.0,30.01,ENE,75,0.0,-999.0,94,-99.99,,,0.00,weatherlink.com 1.10,2013-03-28 09:24:00,
2013-03-28 02:39:00,39.4,38.0,30.00,ENE,75,1.0,-999.0,94,-99.99,,,0.00,weatherlink.com 1.10,2013-03-28 09:39:00,
2013-03-28 02:54:00,38.8,37.0,30.00,ENE,72,3.0,-999.0,94,-99.99,,,0.00,weatherlink.com 1.10,2013-03-28 09:54:00,
2013-03-28 03:09:00,39.3,38.0,30.00,ESE,121,2.0,-999.0,95,-99.99,,,0.00,weatherlink.com 1.10,2013-03-28 10:09:00,
2013-03-28 03:24:00,39.9,38.0,30.00,East,95,1.0,-999.0,94,-99.99,,,0.00,weatherlink.com 1.10,2013-03-28 10:24:00,
2013-03-28 03:39:00,37.9,36.0,29.99,ENE,77,4.0,-999.0,93,-99.99,,,0.00,weatherlink.com 1.10,2013-03-28 10:39:00,
2013-03-28 03:54:00,37.3,36.0,30.00,ESE,103,0.0,-999.0,93,-99.99,,,0.00,weatherlink.com 1.10,2013-03-28 10:54:00,
2013-03-28 04:09:00,37.1,36.0,29.99,ESE,105,2.0,-999.0,94,-99.99,,,0.00,weatherlink.com 1.10,2013-03-28 11:09:00,
2013-03-28 04:24:00,37.8,37.0,30.00,ESE,115,1.0,-999.0,95,-99.99,,,0.00,weatherlink.com 1.10,2013-03-28 11:24:00,
2013-03-28 04:39:00,38.6,37.0,30.00,WSW,246,1.0,-999.0,95,-99.99,,,0.00,weatherlink.com 1.10,2013-03-28 11:39:00,
2013-03-28 04:54:00,39.3,38.0,30.01,SSW,201,0.0,-999.0,94,-99.99,,,0.00,weatherlink.com 1.10,2013-03-28 11:54:00,
2013-03-28 05:09:00,39.6,38.0,30.00,East,91,1.0,-999.0,94,-99.99,,,0.00,weatherlink.com 1.10,2013-03-28 12:09:00,
2013-03-28 05:24:00,39.3,38.0,30.00,East,89,0.0,-999.0,94,-99.99,,,0.00,weatherlink.com 1.10,2013-03-28 12:24:00,
2013-03-28 05:39:00,37.4,35.0,30.01,SSE,160,0.0,-999.0,92,-99.99,,,0.00,weatherlink.com 1.10,2013-03-28 12:39:00,
2013-03-28 05:54:00,36.9,35.0,30.01,South,169,0.0,-999.0,94,-99.99,,,0.00,weatherlink.com 1.10,2013-03-28 12:54:00,
2013-03-28 06:09:00,36.6,35.0,30.01,SSE,153,0.0,-999.0,94,-99.99,,,0.00,weatherlink.com 1.10,2013-03-28 13:09:00,
2013-03-28 06:24:00,35.5,34.0,30.01,ESE,117,2.0,-999.0,95,-99.99,,,0.00,weatherlink.com 1.10,2013-03-28 13:24:00,
2013-03-28 06:39:00,36.0,35.0,30.01,SE,128,1.0,-999.0,95,-99.99,,,0.00,weatherlink.com 1.10,2013-03-28 13:39:00,
2013-03-28 06:54:00,36.3,35.0,30.02,SE,129,5.0,-999.0,95,-99.99,,,0.00,weatherlink.com 1.10,2013-03-28 13:54:00,
2013-03-28 07:09:00,37.6,37.0,30.02,SE,137,3.0,-999.0,96,-99.99,,,0.00,weatherlink.com 1.10,2013-03-28 14:09:00,
2013-03-28 07:24:00,38.7,38.0,30.03,SE,129,9.0,-999.0,96,-99.99,,,0.00,weatherlink.com 1.10,2013-03-28 14:24:00,
2013-03-28 07:39:00,38.9,38.0,30.03,SSE,151,8.0,-999.0,96,-99.99,,,0.00,weatherlink.com 1.10,2013-03-28 14:39:00,
2013-03-28 07:54:00,38.9,38.0,30.03,ESE,121,2.0,-999.0,95,-99.99,,,0.01,weatherlink.com 1.10,2013-03-28 14:54:00,
2013-03-28 08:09:00,38.8,37.0,30.03,ENE,73,1.0,-999.0,93,-99.99,,,0.02,weatherlink.com 1.10,2013-03-28 15:09:00,
2013-03-28 08:24:00,39.3,38.0,30.04,ESE,115,2.0,-999.0,93,-99.99,,,0.02,weatherlink.com 1.10,2013-03-28 15:24:00,
2013-03-28 08:39:00,41.2,39.0,30.04,ESE,113,0.0,-999.0,93,-99.99,,,0.02,weatherlink.com 1.10,2013-03-28 15:39:00,
2013-03-28 08:54:00,43.7,41.0,30.04,SE,132,9.0,-999.0,90,-99.99,,,0.02,weatherlink.com 1.10,2013-03-28 15:54:00,
2013-03-28 09:09:00,43.9,41.0,30.04,South,170,9.0,-999.0,88,-99.99,,,0.02,weatherlink.com 1.10,2013-03-28 16:09:00,
2013-03-28 09:24:00,44.3,42.0,30.04,South,173,6.0,-999.0,90,-99.99,,,0.02,weatherlink.com 1.10,2013-03-28 16:24:00,
2013-03-28 09:39:00,44.1,41.0,30.05,SSW,211,5.0,-999.0,88,-99.99,,,0.02,weatherlink.com 1.10,2013-03-28 16:39:00,
2013-03-28 09:54:00,44.5,41.0,30.05,SW,225,8.0,-999.0,87,-99.99,,,0.02,weatherlink.com 1.10,2013-03-28 16:54:00,
2013-03-28 10:09:00,45.0,41.0,30.05,South,174,6.0,-999.0,87,-99.99,,,0.02,weatherlink.com 1.10,2013-03-28 17:09:00,
2013-03-28 10:24:00,45.0,41.0,30.05,SW,214,6.0,-999.0,86,-99.99,,,0.02,weatherlink.com 1.10,2013-03-28 17:24:00,
2013-03-28 10:39:00,46.5,42.0,30.05,WSW,242,4.0,-999.0,83,-99.99,,,0.02,weatherlink.com 1.10,2013-03-28 17:39:00,
2013-03-28 10:54:00,47.5,42.0,30.05,SSW,211,3.0,-999.0,80,-99.99,,,0.02,weatherlink.com 1.10,2013-03-28 17:54:00,
2013-03-28 11:09:00,48.6,42.0,30.05,SE,143,7.0,-999.0,78,-99.99,,,0.02,weatherlink.com 1.10,2013-03-28 18:09:00,
2013-03-28 11:24:00,48.5,42.0,30.05,South,186,6.0,-999.0,77,-99.99,,,0.02,weatherlink.com 1.10,2013-03-28 18:24:00,
2013-03-28 11:39:00,49.4,41.0,30.05,South,172,4.0,-999.0,73,-99.99,,,0.02,weatherlink.com 1.10,2013-03-28 18:39:00,
2013-03-28 11:54:00,50.5,42.0,30.05,SE,143,5.0,-999.0,72,-99.99,,,0.02,weatherlink.com 1.10,2013-03-28 18:54:00,
2013-03-28 12:09:00,50.5,41.0,30.05,WNW,288,4.0,-999.0,71,-99.99,,,0.02,weatherlink.com 1.10,2013-03-28 19:09:00,
2013-03-28 12:24:00,49.9,40.0,30.05,WNW,285,7.0,-999.0,70,-99.99,,,0.02,weatherlink.com 1.10,2013-03-28 19:24:00,
2013-03-28 12:39:00,49.7,41.0,30.06,WNW,287,5.0,-999.0,72,-99.99,,,0.02,weatherlink.com 1.10,2013-03-28 19:39:00,
2013-03-28 12:54:00,50.2,41.0,30.05,West,259,5.0,-999.0,70,-99.99,,,0.02,weatherlink.com 1.10,2013-03-28 19:54:00,
2013-03-28 13:09:00,51.5,41.0,30.05,NW,307,6.0,-999.0,68,-99.99,,,0.02,weatherlink.com 1.10,2013-03-28 20:09:00,
2013-03-28 13:24:00,52.5,41.0,30.05,WNW,303,2.0,-999.0,65,-99.99,,,0.02,weatherlink.com 1.10,2013-03-28 20:24:00,
2013-03-28 13:39:00,52.6,41.0,30.05,WNW,298,3.0,-999.0,66,-99.99,,,0.02,weatherlink.com 1.10,2013-03-28 20:39:00,
2013-03-28 13:54:00,52.9,40.0,30.05,NW,315,5.0,-999.0,63,-99.99,,,0.02,weatherlink.com 1.10,2013-03-28 20:54:00,
2013-03-28 14:09:00,53.7,40.0,30.04,NNE,20,3.0,-999.0,61,-99.99,,,0.02,weatherlink.com 1.10,2013-03-28 21:09:00,
2013-03-28 14:24:00,54.6,40.0,30.04,NW,307,5.0,-999.0,59,-99.99,,,0.02,weatherlink.com 1.10,2013-03-28 21:24:00,
2013-03-28 14:39:00,54.2,39.0,30.03,NW,311,2.0,-999.0,57,-99.99,,,0.02,weatherlink.com 1.10,2013-03-28 21:39:00,
2013-03-28 14:54:00,53.3,40.0,30.03,NW,323,6.0,-999.0,60,-99.99,,,0.02,weatherlink.com 1.10,2013-03-28 21:54:00,
2013-03-28 15:09:00,53.0,40.0,30.03,WNW,302,3.0,-999.0,61,-99.99,,,0.02,weatherlink.com 1.10,2013-03-28 22:09:00,
2013-03-28 15:24:00,52.8,39.0,30.03,WNW,300,4.0,-999.0,61,-99.99,,,0.02,weatherlink.com 1.10,2013-03-28 22:24:00,
2013-03-28 15:39:00,52.4,40.0,30.03,NNW,328,8.0,-999.0,62,-99.99,,,0.02,weatherlink.com 1.10,2013-03-28 22:39:00,
2013-03-28 15:54:00,52.2,39.0,30.03,North,360,2.0,-999.0,62,-99.99,,,0.02,weatherlink.com 1.10,2013-03-28 22:54:00,
2013-03-28 16:09:00,52.7,38.0,30.04,NE,40,0.0,-999.0,57,-99.99,,,0.02,weatherlink.com 1.10,2013-03-28 23:09:00,
2013-03-28 16:24:00,53.1,38.0,30.03,North,353,1.0,-999.0,57,-99.99,,,0.02,weatherlink.com 1.10,2013-03-28 23:24:00,
2013-03-28 16:39:00,53.2,37.0,30.03,NE,34,5.0,-999.0,55,-99.99,,,0.02,weatherlink.com 1.10,2013-03-28 23:39:00,
2013-03-28 16:54:00,52.8,37.0,30.03,NE,34,2.0,-999.0,56,-99.99,,,0.02,weatherlink.com 1.10,2013-03-28 23:54:00,
2013-03-28 17:09:00,53.1,37.0,30.03,NNE,13,2.0,-999.0,54,-99.99,,,0.02,weatherlink.com 1.10,2013-03-29 00:09:00,
2013-03-28 17:24:00,52.9,39.0,30.03,NNE,12,6.0,-999.0,60,-99.99,,,0.02,weatherlink.com 1.10,2013-03-29 00:24:00,
2013-03-28 17:39:00,52.8,39.0,30.04,NNW,347,5.0,-999.0,59,-99.99,,,0.02,weatherlink.com 1.10,2013-03-29 00:39:00,
2013-03-28 17:54:00,52.1,40.0,30.04,NNW,332,4.0,-999.0,63,-99.99,,,0.02,weatherlink.com 1.10,2013-03-29 00:54:00,
2013-03-28 18:09:00,51.6,39.0,30.04,North,349,8.0,-999.0,63,-99.99,,,0.02,weatherlink.com 1.10,2013-03-29 01:09:00,
2013-03-28 18:24:00,51.3,39.0,30.04,North,353,7.0,-999.0,64,-99.99,,,0.02,weatherlink.com 1.10,2013-03-29 01:24:00,
2013-03-28 18:39:00,50.9,39.0,30.04,NNW,340,8.0,-999.0,64,-99.99,,,0.02,weatherlink.com 1.10,2013-03-29 01:39:00,
2013-03-28 18:54:00,50.3,40.0,30.05,North,354,7.0,-999.0,67,-99.99,,,0.02,weatherlink.com 1.10,2013-03-29 01:54:00,
2013-03-28 19:09:00,49.7,40.0,30.05,NNW,341,6.0,-999.0,70,-99.99,,,0.02,weatherlink.com 1.10,2013-03-29 02:09:00,
2013-03-28 19:24:00,49.0,41.0,30.06,NNW,337,8.0,-999.0,73,-99.99,,,0.02,weatherlink.com 1.10,2013-03-29 02:24:00,
2013-03-28 19:39:00,48.2,40.0,30.06,NNW,328,6.0,-999.0,74,-99.99,,,0.02,weatherlink.com 1.10,2013-03-29 02:39:00,
2013-03-28 19:55:00,47.7,41.0,30.07,NNW,333,3.0,-999.0,77,-99.99,,,0.02,weatherlink.com 1.10,2013-03-29 02:55:00,
2013-03-28 20:10:00,47.3,41.0,30.07,NW,326,5.0,-999.0,80,-99.99,,,0.02,weatherlink.com 1.10,2013-03-29 03:10:00,
2013-03-28 20:25:00,46.3,42.0,30.08,NNW,341,2.0,-999.0,85,-99.99,,,0.02,weatherlink.com 1.10,2013-03-29 03:25:00,
2013-03-28 20:39:00,45.6,42.0,30.08,NW,322,2.0,-999.0,88,-99.99,,,0.02,weatherlink.com 1.10,2013-03-29 03:39:00,
2013-03-28 20:55:00,44.9,42.0,30.09,NW,304,2.0,-999.0,90,-99.99,,,0.03,weatherlink.com 1.10,2013-03-29 03:55:00,
2013-03-28 21:09:00,44.1,41.0,30.09,WSW,242,5.0,-999.0,90,-99.99,,,0.03,weatherlink.com 1.10,2013-03-29 04:09:00,
2013-03-28 21:24:00,43.9,42.0,30.10,WSW,237,3.0,-999.0,91,-99.99,,,0.03,weatherlink.com 1.10,2013-03-29 04:24:00,
2013-03-28 21:39:00,43.6,41.0,30.10,WSW,246,2.0,-999.0,91,-99.99,,,0.03,weatherlink.com 1.10,2013-03-29 04:39:00,
2013-03-28 21:54:00,43.6,41.0,30.11,West,259,3.0,-999.0,91,-99.99,,,0.03,weatherlink.com 1.10,2013-03-29 04:54:00,
2013-03-28 22:09:00,43.5,41.0,30.11,West,278,2.0,-999.0,92,-99.99,,,0.03,weatherlink.com 1.10,2013-03-29 05:09:00,
2013-03-28 22:24:00,43.3,41.0,30.11,West,269,2.0,-999.0,92,-99.99,,,0.03,weatherlink.com 1.10,2013-03-29 05:24:00,
2013-03-28 22:39:00,43.2,41.0,30.11,WSW,256,0.0,-999.0,93,-99.99,,,0.03,weatherlink.com 1.10,2013-03-29 05:39:00,
2013-03-28 22:54:00,43.1,41.0,30.12,West,259,1.0,-999.0,93,-99.99,,,0.03,weatherlink.com 1.10,2013-03-29 05:54:00,
2013-03-28 23:09:00,43.0,41.0,30.12,West,264,0.0,-999.0,93,-99.99,,,0.03,weatherlink.com 1.10,2013-03-29 06:09:00,
2013-03-28 23:24:00,42.9,41.0,30.12,West,264,0.0,-999.0,94,-99.99,,,0.03,weatherlink.com 1.10,2013-03-29 06:24:00,
2013-03-28 23:39:00,42.8,41.0,30.12,WSW,242,0.0,-999.0,94,-99.99,,,0.03,weatherlink.com 1.10,2013-03-29 06:39:00,
2013-03-28 23:54:00,42.7,41.0,30.13,West,273,1.0,-999.0,94,-99.99,,,0.03,weatherlink.com 1.10,2013-03-29 06:54:00,